Time,TemperatureF,DewpointF,PressureIn,WindDirection,WindDirectionDegrees,WindSpeedMPH,WindSpeedGustMPH,Humidity,HourlyPrecipIn,Conditions,Clouds,dailyrainin,SoftwareType,DateUTC
2013-06-07 00:03:00,54.0,52.0,30.11,SW,227,0.0,1.0,94,0.00,,,0.00,,2013-06-07 04:03:00,
2013-06-07 00:12:00,54.0,52.0,30.11,SW,227,0.0,1.0,94,0.00,,,0.00,,2013-06-07 04:12:00,
2013-06-07 00:23:00,54.0,52.0,30.11,SW,227,0.0,0.0,94,0.00,,,0.00,,2013-06-07 04:23:00,
2013-06-07 00:33:00,54.0,52.0,30.10,SW,227,0.0,0.0,94,0.00,,,0.00,,2013-06-07 04:33:00,
2013-06-07 00:42:00,54.0,52.0,30.10,SW,227,0.0,0.0,94,0.00,,,0.00,,2013-06-07 04:42:00,
2013-06-07 00:53:00,53.0,51.0,30.10,SW,227,0.0,0.0,94,0.00,,,0.00,,2013-06-07 04:53:00,
2013-06-07 01:03:00,53.0,51.0,30.10,SW,227,0.0,0.0,94,0.00,,,0.00,,2013-06-07 05:03:00,
2013-06-07 01:12:00,53.0,51.0,30.10,SW,227,0.0,0.0,94,0.00,,,0.00,,2013-06-07 05:12:00,
2013-06-07 01:22:00,53.0,52.0,30.10,SW,227,0.0,0.0,95,0.00,,,0.00,,2013-06-07 05:22:00,
2013-06-07 01:32:00,53.0,52.0,30.10,SW,227,0.0,0.0,95,0.00,,,0.00,,2013-06-07 05:32:00,
2013-06-07 01:42:00,53.0,52.0,30.10,SW,227,0.0,0.0,95,0.00,,,0.00,,2013-06-07 05:42:00,
2013-06-07 01:52:00,53.0,52.0,30.10,SW,227,0.0,0.0,95,0.00,,,0.00,,2013-06-07 05:52:00,
2013-06-07 02:02:00,53.0,52.0,30.10,SW,227,0.0,0.0,95,0.00,,,0.00,,2013-06-07 06:02:00,
2013-06-07 02:12:00,53.0,52.0,30.10,SW,227,0.0,0.0,95,0.00,,,0.00,,2013-06-07 06:12:00,
2013-06-07 02:22:00,53.0,52.0,30.10,SW,227,0.0,0.0,95,0.00,,,0.00,,2013-06-07 06:22:00,
2013-06-07 02:32:00,53.0,52.0,30.10,SW,227,0.0,0.0,95,0.00,,,0.00,,2013-06-07 06:32:00,
2013-06-07 02:42:00,53.0,52.0,30.10,SW,227,0.0,0.0,95,0.00,,,0.00,,2013-06-07 06:42:00,
2013-06-07 02:52:00,53.0,52.0,30.09,SW,227,0.0,0.0,95,0.00,,,0.00,,2013-06-07 06:52:00,
2013-06-07 03:02:00,52.0,51.0,30.09,SW,227,0.0,0.0,95,0.00,,,0.00,,2013-06-07 07:02:00,
2013-06-07 03:12:00,52.0,51.0,30.09,SW,227,0.0,0.0,95,0.00,,,0.00,,2013-06-07 07:12:00,
2013-06-07 03:22:00,52.0,51.0,30.09,SW,227,0.0,0.0,95,0.00,,,0.00,,2013-06-07 07:22:00,
2013-06-07 03:32:00,53.0,52.0,30.07,NNE,21,0.0,4.0,95,0.00,,,0.00,,2013-06-07 07:32:00,
2013-06-07 03:42:00,53.0,52.0,30.07,NNE,21,0.0,4.0,95,0.00,,,0.00,,2013-06-07 07:42:00,
2013-06-07 03:52:00,53.0,52.0,30.08,NE,36,2.0,4.0,95,0.00,,,0.00,,2013-06-07 07:52:00,
2013-06-07 04:02:00,53.0,52.0,30.07,NE,53,2.0,4.0,95,0.00,,,0.00,,2013-06-07 08:02:00,
2013-06-07 04:12:00,53.0,52.0,30.07,NE,53,2.0,4.0,95,0.00,,,0.00,,2013-06-07 08:12:00,
2013-06-07 04:22:00,53.0,52.0,30.07,NE,44,1.0,4.0,95,0.00,,,0.00,,2013-06-07 08:22:00,
2013-06-07 04:32:00,53.0,51.0,30.07,NE,44,1.0,4.0,94,0.00,,,0.00,,2013-06-07 08:32:00,
2013-06-07 04:43:00,53.0,51.0,30.07,NE,44,1.0,4.0,94,0.00,,,0.00,,2013-06-07 08:43:00,
2013-06-07 04:52:00,53.0,51.0,30.07,NE,44,1.0,3.0,93,0.00,,,0.00,,2013-06-07 08:52:00,
2013-06-07 05:02:00,53.0,51.0,30.06,North,355,3.0,5.0,93,0.00,,,0.00,,2013-06-07 09:02:00,
2013-06-07 05:12:00,53.0,51.0,30.06,North,355,3.0,5.0,93,0.00,,,0.00,,2013-06-07 09:12:00,
2013-06-07 05:22:00,53.0,51.0,30.07,North,9,0.0,3.0,93,0.00,,,0.00,,2013-06-07 09:22:00,
2013-06-07 05:32:00,53.0,51.0,30.07,North,9,0.0,2.0,93,0.00,,,0.00,,2013-06-07 09:32:00,
2013-06-07 05:43:00,53.0,51.0,30.07,North,9,0.0,2.0,93,0.00,,,0.00,,2013-06-07 09:43:00,
2013-06-07 05:53:00,53.0,51.0,30.06,North,9,1.0,3.0,93,0.00,,,0.00,,2013-06-07 09:53:00,
2013-06-07 06:03:00,53.0,51.0,30.07,North,9,2.0,4.0,93,0.00,,,0.00,,2013-06-07 10:03:00,
2013-06-07 06:13:00,53.0,51.0,30.07,North,9,2.0,4.0,93,0.00,,,0.00,,2013-06-07 10:13:00,
2013-06-07 06:23:00,53.0,51.0,30.06,North,5,2.0,4.0,93,0.00,,,0.00,,2013-06-07 10:23:00,
2013-06-07 06:33:00,53.0,51.0,30.06,North,5,1.0,3.0,93,0.00,,,0.00,,2013-06-07 10:33:00,
2013-06-07 06:42:00,53.0,51.0,30.06,North,5,1.0,3.0,93,0.00,,,0.00,,2013-06-07 10:42:00,
2013-06-07 06:53:00,53.0,51.0,30.07,North,5,1.0,3.0,92,0.00,,,0.00,,2013-06-07 10:53:00,
2013-06-07 07:02:00,53.0,51.0,30.08,NNE,32,0.0,0.0,92,0.00,,,0.00,,2013-06-07 11:02:00,
2013-06-07 07:12:00,53.0,51.0,30.08,NNE,32,0.0,0.0,92,0.00,,,0.00,,2013-06-07 11:12:00,
2013-06-07 07:22:00,53.0,51.0,30.08,NNE,32,0.0,0.0,92,0.00,,,0.00,,2013-06-07 11:22:00,
2013-06-07 07:32:00,54.0,51.0,30.08,NNE,32,0.0,0.0,91,0.00,,,0.00,,2013-06-07 11:32:00,
2013-06-07 07:42:00,54.0,51.0,30.08,NNE,32,0.0,0.0,91,0.00,,,0.00,,2013-06-07 11:42:00,
2013-06-07 07:52:00,54.0,51.0,30.07,NNE,27,3.0,5.0,91,0.00,,,0.00,,2013-06-07 11:52:00,
2013-06-07 08:02:00,54.0,51.0,30.07,NNE,26,2.0,5.0,91,0.00,,,0.00,,2013-06-07 12:02:00,
2013-06-07 08:12:00,54.0,51.0,30.07,NNE,26,2.0,5.0,91,0.00,,,0.00,,2013-06-07 12:12:00,
2013-06-07 08:22:00,55.0,52.0,30.09,NNE,26,0.0,0.0,88,0.00,,,0.00,,2013-06-07 12:22:00,
2013-06-07 08:32:00,55.0,51.0,30.07,NNE,19,5.0,7.0,86,0.00,,,0.00,,2013-06-07 12:32:00,
2013-06-07 08:42:00,55.0,51.0,30.07,NNE,19,5.0,7.0,86,0.00,,,0.00,,2013-06-07 12:42:00,
2013-06-07 08:52:00,56.0,51.0,30.07,NNE,28,5.0,8.0,82,0.00,,,0.00,,2013-06-07 12:52:00,
2013-06-07 09:02:00,56.0,49.0,30.07,NE,44,5.0,8.0,78,0.00,,,0.00,,2013-06-07 13:02:00,
2013-06-07 09:13:00,56.0,49.0,30.07,NE,44,5.0,8.0,78,0.00,,,0.00,,2013-06-07 13:13:00,
2013-06-07 09:22:00,56.0,50.0,30.08,NE,43,4.0,6.0,79,0.00,,,0.00,,2013-06-07 13:22:00,
2013-06-07 09:32:00,57.0,48.0,30.07,NE,41,4.0,7.0,72,0.00,,,0.00,,2013-06-07 13:32:00,
2013-06-07 09:42:00,57.0,48.0,30.07,NE,41,4.0,7.0,72,0.00,,,0.00,,2013-06-07 13:42:00,
2013-06-07 09:52:00,59.0,46.0,30.08,NE,39,2.0,8.0,63,0.00,,,0.00,,2013-06-07 13:52:00,
2013-06-07 10:02:00,59.0,45.0,30.07,NE,51,3.0,6.0,60,0.00,,,0.00,,2013-06-07 14:02:00,
2013-06-07 10:12:00,59.0,45.0,30.07,NE,51,3.0,6.0,60,0.00,,,0.00,,2013-06-07 14:12:00,
2013-06-07 10:23:00,59.0,44.0,30.07,NE,45,1.0,6.0,58,0.00,,,0.00,,2013-06-07 14:23:00,
2013-06-07 10:33:00,60.0,45.0,30.07,NE,47,2.0,5.0,58,0.00,,,0.00,,2013-06-07 14:33:00,
2013-06-07 10:42:00,60.0,45.0,30.07,NE,47,2.0,5.0,58,0.00,,,0.00,,2013-06-07 14:42:00,
2013-06-07 10:52:00,60.0,45.0,30.07,ENE,61,1.0,6.0,58,0.00,,,0.00,,2013-06-07 14:52:00,
2013-06-07 11:02:00,60.0,45.0,30.07,North,11,0.0,2.0,57,0.00,,,0.00,,2013-06-07 15:02:00,
2013-06-07 11:12:00,60.0,45.0,30.07,North,11,0.0,2.0,57,0.00,,,0.00,,2013-06-07 15:12:00,
2013-06-07 11:23:00,60.0,46.0,30.07,NNE,21,7.0,10.0,60,0.00,,,0.00,,2013-06-07 15:23:00,
2013-06-07 11:33:00,60.0,47.0,30.06,NNE,24,6.0,11.0,63,0.00,,,0.00,,2013-06-07 15:33:00,
2013-06-07 11:43:00,60.0,47.0,30.06,NNE,24,6.0,11.0,63,0.00,,,0.00,,2013-06-07 15:43:00,
2013-06-07 11:53:00,60.0,46.0,30.06,NNE,26,6.0,13.0,60,0.00,,,0.00,,2013-06-07 15:53:00,
2013-06-07 12:03:00,60.0,46.0,30.05,NE,36,7.0,11.0,60,0.00,,,0.00,,2013-06-07 16:03:00,
2013-06-07 12:13:00,60.0,46.0,30.05,NE,36,7.0,11.0,60,0.00,,,0.00,,2013-06-07 16:13:00,
2013-06-07 12:22:00,60.0,45.0,30.06,NNE,21,9.0,12.0,58,0.00,,,0.00,,2013-06-07 16:22:00,
2013-06-07 12:33:00,60.0,44.0,30.06,NE,35,9.0,12.0,55,0.00,,,0.00,,2013-06-07 16:33:00,
2013-06-07 12:43:00,60.0,44.0,30.06,NE,35,9.0,12.0,55,0.00,,,0.00,,2013-06-07 16:43:00,
2013-06-07 12:53:00,60.0,49.0,30.06,NE,47,4.0,11.0,67,0.00,,,0.00,,2013-06-07 16:53:00,
2013-06-07 13:03:00,60.0,47.0,30.06,ENE,58,3.0,9.0,63,0.00,,,0.00,,2013-06-07 17:03:00,
2013-06-07 13:13:00,60.0,47.0,30.06,ENE,58,3.0,9.0,63,0.00,,,0.00,,2013-06-07 17:13:00,
2013-06-07 13:23:00,60.0,44.0,30.05,NNE,28,6.0,9.0,56,0.00,,,0.00,,2013-06-07 17:23:00,
2013-06-07 13:32:00,60.0,42.0,30.05,NE,34,5.0,8.0,52,0.00,,,0.00,,2013-06-07 17:32:00,
2013-06-07 13:43:00,60.0,42.0,30.05,NE,34,5.0,8.0,52,0.00,,,0.00,,2013-06-07 17:43:00,
2013-06-07 13:52:00,60.0,44.0,30.05,North,11,0.0,7.0,56,0.00,,,0.00,,2013-06-07 17:52:00,
2013-06-07 14:08:00,60.0,46.0,30.04,ENE,63,3.0,4.0,59,0.00,,,0.00,,2013-06-07 18:08:00,
2013-06-07 14:20:00,60.0,46.0,30.04,ENE,63,3.0,4.0,59,0.00,,,0.00,,2013-06-07 18:20:00,
2013-06-07 14:26:00,60.0,45.0,30.03,NNE,23,8.0,11.0,57,0.00,,,0.00,,2013-06-07 18:26:00,
2013-06-07 14:36:00,60.0,44.0,30.03,NE,35,7.0,10.0,56,0.00,,,0.00,,2013-06-07 18:36:00,
2013-06-07 14:45:00,60.0,44.0,30.03,NE,35,7.0,10.0,56,0.00,,,0.00,,2013-06-07 18:45:00,
2013-06-07 15:00:00,60.0,47.0,30.04,NE,38,8.0,11.0,61,0.00,,,0.00,,2013-06-07 19:00:00,
2013-06-07 15:08:00,59.0,47.0,30.04,NE,38,7.0,11.0,64,0.00,,,0.00,,2013-06-07 19:08:00,
2013-06-07 15:15:00,59.0,47.0,30.04,NE,38,7.0,11.0,64,0.00,,,0.00,,2013-06-07 19:15:00,
2013-06-07 15:29:00,59.0,47.0,30.05,NE,34,9.0,12.0,65,0.00,,,0.00,,2013-06-07 19:29:00,
2013-06-07 15:37:00,59.0,48.0,30.05,NE,46,5.0,10.0,68,0.00,,,0.00,,2013-06-07 19:37:00,
2013-06-07 15:48:00,59.0,48.0,30.05,NE,46,5.0,10.0,68,0.00,,,0.00,,2013-06-07 19:48:00,
2013-06-07 15:59:00,59.0,49.0,30.05,NNE,32,6.0,9.0,69,0.00,,,0.00,,2013-06-07 19:59:00,
2013-06-07 16:07:00,58.0,48.0,30.04,NE,39,4.0,10.0,69,0.00,,,0.00,,2013-06-07 20:07:00,
2013-06-07 16:16:00,58.0,48.0,30.04,NE,39,4.0,10.0,69,0.00,,,0.00,,2013-06-07 20:16:00,
2013-06-07 16:27:00,57.0,48.0,30.04,NE,37,7.0,11.0,71,0.00,,,0.00,,2013-06-07 20:27:00,
2013-06-07 16:38:00,57.0,49.0,30.04,NE,54,8.0,11.0,74,0.00,,,0.00,,2013-06-07 20:38:00,
2013-06-07 16:47:00,57.0,49.0,30.04,NE,54,8.0,11.0,74,0.00,,,0.00,,2013-06-07 20:47:00,
2013-06-07 16:58:00,56.0,49.0,30.04,NNE,24,4.0,8.0,76,0.00,,,0.00,,2013-06-07 20:58:00,
2013-06-07 17:05:00,55.0,48.0,30.05,NE,42,5.0,8.0,78,0.00,,,0.00,,2013-06-07 21:05:00,
2013-06-07 17:19:00,55.0,48.0,30.05,NE,42,5.0,8.0,78,0.00,,,0.00,,2013-06-07 21:19:00,
2013-06-07 17:29:00,55.0,49.0,30.04,North,9,1.0,8.0,79,0.00,,,0.00,,2013-06-07 21:29:00,
2013-06-07 17:45:00,55.0,50.0,30.03,NNE,29,7.0,10.0,84,0.00,,,0.00,,2013-06-07 21:45:00,
2013-06-07 18:02:00,54.0,50.0,30.03,NNE,30,5.0,10.0,87,0.00,,,0.00,,2013-06-07 22:02:00,
2013-06-07 18:22:00,54.0,51.0,30.03,NNE,32,7.0,10.0,90,0.00,,,0.00,,2013-06-07 22:22:00,
2013-06-07 18:28:00,53.0,51.0,30.02,North,9,5.0,8.0,92,0.00,,,0.00,,2013-06-07 22:28:00,
2013-06-07 18:38:00,53.0,51.0,30.02,North,355,5.0,6.0,92,0.00,,,0.00,,2013-06-07 22:38:00,
2013-06-07 18:47:00,53.0,51.0,30.02,North,355,5.0,6.0,92,0.00,,,0.00,,2013-06-07 22:47:00,
2013-06-07 19:00:00,53.0,51.0,30.02,NNE,15,5.0,7.0,93,0.00,,,0.00,,2013-06-07 23:00:00,
2013-06-07 19:09:00,54.0,52.0,30.01,NNW,342,5.0,7.0,93,0.00,,,0.00,,2013-06-07 23:09:00,
2013-06-07 19:19:00,54.0,52.0,30.01,NNW,342,5.0,7.0,93,0.00,,,0.00,,2013-06-07 23:19:00,
2013-06-07 19:31:00,54.0,52.0,30.01,NNW,348,4.0,7.0,93,0.00,,,0.00,,2013-06-07 23:31:00,
2013-06-07 19:37:00,54.0,52.0,30.01,North,355,4.0,6.0,93,0.00,,,0.00,,2013-06-07 23:37:00,
2013-06-07 19:50:00,54.0,52.0,30.01,North,355,4.0,6.0,93,0.00,,,0.00,,2013-06-07 23:50:00,
2013-06-07 20:04:00,54.0,52.0,30.00,North,5,6.0,8.0,93,0.00,,,0.00,,2013-06-08 00:04:00,
2013-06-07 20:12:00,54.0,52.0,30.00,NNW,343,6.0,8.0,94,0.00,,,0.00,,2013-06-08 00:12:00,
2013-06-07 20:18:00,55.0,53.0,30.00,NNW,342,6.0,9.0,94,0.00,,,0.00,,2013-06-08 00:18:00,
2013-06-07 20:29:00,55.0,53.0,30.00,NNW,342,6.0,9.0,94,0.00,,,0.00,,2013-06-08 00:29:00,
2013-06-07 20:34:00,55.0,53.0,29.99,North,360,6.0,10.0,93,0.00,,,0.00,,2013-06-08 00:34:00,
2013-06-07 20:45:00,55.0,53.0,29.99,North,360,6.0,10.0,93,0.00,,,0.00,,2013-06-08 00:45:00,
2013-06-07 21:01:00,55.0,53.0,29.99,North,360,5.0,8.0,94,0.00,,,0.00,,2013-06-08 01:01:00,
2013-06-07 21:07:00,55.0,53.0,29.99,North,355,5.0,7.0,94,0.00,,,0.00,,2013-06-08 01:07:00,
2013-06-07 21:19:00,55.0,53.0,29.99,North,355,5.0,7.0,94,0.00,,,0.00,,2013-06-08 01:19:00,
2013-06-07 21:29:00,55.0,53.0,29.99,NNE,23,5.0,6.0,93,0.02,,,0.02,,2013-06-08 01:29:00,
2013-06-07 21:38:00,55.0,53.0,29.99,NNE,31,6.0,9.0,93,0.02,,,0.02,,2013-06-08 01:38:00,
2013-06-07 21:45:00,55.0,53.0,29.99,NNE,31,6.0,9.0,93,0.02,,,0.02,,2013-06-08 01:45:00,
2013-06-07 22:02:00,54.0,51.0,29.99,NNE,25,7.0,9.0,91,0.03,,,0.03,,2013-06-08 02:02:00,
2013-06-07 22:15:00,54.0,51.0,29.98,NNE,24,7.0,11.0,91,0.04,,,0.04,,2013-06-08 02:15:00,
2013-06-07 22:29:00,54.0,52.0,29.98,NE,35,7.0,9.0,92,0.04,,,0.06,,2013-06-08 02:29:00,
2013-06-07 22:35:00,54.0,52.0,29.97,NNE,18,6.0,9.0,92,0.06,,,0.08,,2013-06-08 02:35:00,
2013-06-07 22:47:00,54.0,52.0,29.97,NNE,18,6.0,9.0,92,0.06,,,0.08,,2013-06-08 02:47:00,
2013-06-07 22:59:00,53.0,51.0,29.96,NNW,329,8.0,11.0,93,0.07,,,0.10,,2013-06-08 02:59:00,
2013-06-07 23:17:00,53.0,51.0,29.96,North,5,7.0,10.0,94,0.07,,,0.12,,2013-06-08 03:17:00,
2013-06-07 23:27:00,53.0,52.0,29.95,North,5,9.0,12.0,95,0.08,,,0.14,,2013-06-08 03:27:00,
2013-06-07 23:37:00,53.0,52.0,29.94,North,11,8.0,12.0,95,0.07,,,0.15,,2013-06-08 03:37:00,
2013-06-07 23:52:00,53.0,52.0,29.94,North,11,8.0,12.0,95,0.07,,,0.15,,2013-06-08 03:52:00,